KCNU/CNU METAR and TAF weather

Enter ICAO airport designator
Station Type Date Time Source
KCNU METAR 2022/12/02 22:52 UTC NOAA

KCNU 022252Z AUTO 20016G22KT 10SM CLR 14/09 A2976 RMK AO2 PK WND 20027/2226 SLP074 T01390094


Station Type Date Time Source
KCNU Decoded METAR 2022/12/02 22:52 UTC NOAA

CHANUTE JOHNSON AIRPORT, KS, United States (KCNU) 37-40N 95-29W 297M
Dec 02, 2022 - 05:52 PM EST / 2022.12.02 2252 UTC
Wind: from the SSW (200 degrees) at 18 MPH (16 KT) gusting to 25 MPH (22 KT):0
Visibility: 10 mile(s):0
Sky conditions: clear
Temperature: 57.0 F (13.9 C)
Dew Point: 48.9 F (9.4 C)
Relative Humidity: 74%
Pressure (altimeter): 29.76 in. Hg (1007 hPa)
ob: KCNU 022252Z AUTO 20016G22KT 10SM CLR 14/09 A2976 RMK AO2 PK WND 20027/2226 SLP074 T01390094
cycle: 23

Station Type Date Time Source
KCNU TAF 2022/12/02 18:42 UTC NOAA

TAF KCNU 021740Z 0218/0318 20025G35KT P6SM BKN015
FM022000 21026G35KT P6SM SCT170
FM030200 27020KT P6SM SCT250
FM030400 33021G40KT P6SM SCT250
FM031000 35015KT P6SM SKC

Example: see airport list